Observation data for Muleshoe on 12/08/2018      Previous  Date       Current Mesonet Observations  Soil Data  Daily Summary Page  Observations in Plain Language
KMUS 080600Z 03007KT 00/M02 A3028 RMK A01 T00021020  RH  086%=      5-min Rain = 0
KMUS 080605Z 04008KT 00/M02 A3028 RMK A01 T00021021  RH  085%=      5-min Rain = 0
KMUS 080610Z 05006KT 00/M02 A3028 RMK A01 T00021021  RH  085%=      5-min Rain = 0
KMUS 080615Z 04007KT 00/M02 A3028 RMK A01 T00021020  RH  085%=      5-min Rain = 0
KMUS 080620Z 03007KT 00/M02 A3028 RMK A01 T00021020  RH  086%=      5-min Rain = 0
KMUS 080625Z 03007KT 00/M02 A3028 RMK A01 T00021020  RH  086%=      5-min Rain = 0
KMUS 080630Z 04008KT 00/M02 A3028 RMK A01 T00021021  RH  085%=      5-min Rain = 0
KMUS 080635Z 03007KT 00/M02 A3027 RMK A01 T00021021  RH  085%=      5-min Rain = 0
KMUS 080640Z 04007KT 00/M02 A3027 RMK A01 T00021020  RH  085%=      5-min Rain = 0
KMUS 080645Z 04007KT 00/M02 A3027 RMK A01 T00021020  RH  086%=      5-min Rain = 0
KMUS 080650Z 03008KT 00/M02 A3027 RMK A01 T00021020  RH  086%=      5-min Rain = 0
KMUS 080655Z 04007KT 00/M02 A3027 RMK A01 T00021021  RH  086%=      5-min Rain = 0
KMUS 080700Z 03005KT 00/M02 A3027 RMK A01 T00021020  RH  086%=      5-min Rain = 0
KMUS 080705Z 04007KT 00/M02 A3027 RMK A01 T00011020  RH  086%=      5-min Rain = 0
KMUS 080710Z 04006KT 00/M02 A3027 RMK A01 T00011019  RH  087%=      5-min Rain = 0
KMUS 080715Z 04006KT 00/M02 A3027 RMK A01 T00011020  RH  086%=      5-min Rain = 0
KMUS 080720Z 05007KT 00/M02 A3027 RMK A01 T00011022  RH  085%=      5-min Rain = 0
KMUS 080725Z 05007KT 00/M02 A3027 RMK A01 T00011023  RH  085%=      5-min Rain = 0
KMUS 080730Z 05007KT 00/02 A3027 RMK A01 T00000-23  RH  085%=      5-min Rain = 0
KMUS 080735Z 05006KT 00/02 A3027 RMK A01 T00-00-22  RH  086%=      5-min Rain = 0
KMUS 080740Z 05006KT M00/M02 A3027 RMK A01 T10011020  RH  088%=      5-min Rain = 0
KMUS 080745Z 05006KT M00/M02 A3027 RMK A01 T10021018  RH  089%=      5-min Rain = 0
KMUS 080750Z 05005KT M00/M02 A3028 RMK A01 T10031017  RH  091%=      5-min Rain = 0
KMUS 080755Z 06006KT M00/M02 A3027 RMK A01 T10041016  RH  092%=      5-min Rain = 0
KMUS 080800Z 06005KT M00/M02 A3027 RMK A01 T10041015  RH  093%=      5-min Rain = 0
KMUS 080805Z 05004KT M01/M01 A3027 RMK A01 T10051014  RH  094%=      5-min Rain = 0
KMUS 080810Z 05005KT M01/M01 A3027 RMK A01 T10061014  RH  095%=      5-min Rain = 0
KMUS 080815Z 05004KT M01/M01 A3027 RMK A01 T10061014  RH  096%=      5-min Rain = 0
KMUS 080820Z 04005KT M01/M01 A3027 RMK A01 T10071014  RH  096%=      5-min Rain = 0
KMUS 080825Z 03005KT M01/M01 A3026 RMK A01 T10071013  RH  096%=      5-min Rain = 0
KMUS 080830Z 03006KT M01/M01 A3027 RMK A01 T10071013  RH  097%=      5-min Rain = 0
KMUS 080835Z 04007KT M01/M01 A3027 RMK A01 T10081013  RH  097%=      5-min Rain = 0
KMUS 080840Z 04007KT M01/M01 A3026 RMK A01 T10081013  RH  097%=      5-min Rain = 0
KMUS 080845Z 04006KT M01/M01 A3026 RMK A01 T10091014  RH  098%=      5-min Rain = 0
KMUS 080850Z 04006KT M01/M01 A3026 RMK A01 T10091013  RH  098%=      5-min Rain = 0
KMUS 080855Z 04006KT M01/M01 A3026 RMK A01 T10091013  RH  098%=      5-min Rain = 0
KMUS 080900Z 04005KT M01/M01 A3026 RMK A01 T10091013  RH  098%=      5-min Rain = 0
KMUS 080905Z 03004KT M01/M01 A3026 RMK A01 T10091012  RH  098%=      5-min Rain = 0
KMUS 080910Z 03004KT M01/M01 A3026 RMK A01 T10091012  RH  098%=      5-min Rain = 0
KMUS 080915Z 03004KT M01/M01 A3026 RMK A01 T10091012  RH  099%=      5-min Rain = 0
KMUS 080920Z 03004KT M01/M01 A3026 RMK A01 T10081012  RH  099%=      5-min Rain = 0
KMUS 080925Z 02004KT M01/M01 A3026 RMK A01 T10081011  RH  099%=      5-min Rain = 0
KMUS 080930Z 02004KT M01/M01 A3025 RMK A01 T10081011  RH  099%=      5-min Rain = 0
KMUS 080935Z 01004KT M01/M01 A3025 RMK A01 T10081011  RH  099%=      5-min Rain = 0
KMUS 080940Z 00003KT M01/M01 A3025 RMK A01 T10081011  RH  099%=      5-min Rain = 0
KMUS 080945Z 36003KT M01/M01 A3025 RMK A01 T10081011  RH  099%=      5-min Rain = 0
KMUS 080950Z 36005KT M01/M01 A3025 RMK A01 T10081011  RH  099%=      5-min Rain = 0
KMUS 080955Z 00005KT M01/M01 A3025 RMK A01 T10081011  RH  099%=      5-min Rain = 0
KMUS 081000Z 00005KT M01/M01 A3025 RMK A01 T10091011  RH  099%=      5-min Rain = 0
KMUS 081005Z 00005KT M01/M01 A3025 RMK A01 T10091011  RH  099%=      5-min Rain = 0
KMUS 081010Z 01006KT M01/M01 A3025 RMK A01 T10091011  RH  099%=      5-min Rain = 0
KMUS 081015Z 00005KT M01/M01 A3025 RMK A01 T10091011  RH  100%=      5-min Rain = 0
KMUS 081020Z 36005KT M01/M01 A3025 RMK A01 T10091011  RH  100%=      5-min Rain = 0
KMUS 081025Z 01006KT M01/M01 A3025 RMK A01 T10101011  RH  100%=      5-min Rain = 0
KMUS 081030Z 02008KT M01/M01 A3025 RMK A01 T10101012  RH  100%=      5-min Rain = 0
KMUS 081035Z 01007KT M01/M01 A3025 RMK A01 T10111012  RH  100%=      5-min Rain = 0
KMUS 081040Z 01008KT M01/M01 A3025 RMK A01 T10111013  RH  100%=      5-min Rain = 0
KMUS 081045Z 01007KT M01/M01 A3024 RMK A01 T10111013  RH  100%=      5-min Rain = 0
KMUS 081050Z 01007KT M01/M01 A3024 RMK A01 T10111013  RH  100%=      5-min Rain = 0
KMUS 081055Z 01007KT M01/M01 A3024 RMK A01 T10111013  RH  100%=      5-min Rain = 0
KMUS 081100Z 01006KT M01/M01 A3024 RMK A01 T10111013  RH  100%=      5-min Rain = 0
KMUS 081105Z 00006KT M01/M01 A3024 RMK A01 T10111012  RH  100%=      5-min Rain = 0
KMUS 081110Z 36006KT M01/M01 A3024 RMK A01 T10111012  RH  100%=      5-min Rain = 0
KMUS 081115Z 36005KT M01/M01 A3024 RMK A01 T10111012  RH  100%=      5-min Rain = 0
KMUS 081120Z 36006KT M01/M01 A3024 RMK A01 T10111012  RH  100%=      5-min Rain = 0
KMUS 081125Z 36006KT M01/M01 A3024 RMK A01 T10101012  RH  100%=      5-min Rain = 0
KMUS 081130Z 36006KT M01/M01 A3024 RMK A01 T10101012  RH  100%=      5-min Rain = 0
KMUS 081135Z 36006KT M01/M01 A3024 RMK A01 T10101011  RH  100%=      5-min Rain = 0
KMUS 081140Z 35006KT M01/M01 A3024 RMK A01 T10101011  RH  100%=      5-min Rain = 0
KMUS 081145Z 00006KT M01/M01 A3024 RMK A01 T10101011  RH  100%=      5-min Rain = 0
KMUS 081150Z 36006KT M01/M01 A3024 RMK A01 T10101011  RH  100%=      5-min Rain = 0
KMUS 081155Z 36007KT M01/M01 A3024 RMK A01 T10101011  RH  100%=      5-min Rain = 0
KMUS 081200Z 36006KT M01/M01 A3024 RMK A01 T10101011  RH  100%=      5-min Rain = 0
KMUS 081205Z 00007KT M01/M01 A3024 RMK A01 T10101011  RH  100%=      5-min Rain = 0
KMUS 081210Z 00006KT M01/M01 A3024 RMK A01 T10101011  RH  100%=      5-min Rain = 0
KMUS 081215Z 01005KT M01/M01 A3024 RMK A01 T10101011  RH  100%=      5-min Rain = 0
KMUS 081220Z 01005KT M01/M01 A3024 RMK A01 T10101011  RH  100%=      5-min Rain = 0
KMUS 081225Z 02004KT M01/M01 A3024 RMK A01 T10101011  RH  100%=      5-min Rain = 0
KMUS 081230Z 02005KT M01/M01 A3024 RMK A01 T10101011  RH  100%=      5-min Rain = 0
KMUS 081235Z 02005KT M01/M01 A3025 RMK A01 T10101012  RH  100%=      5-min Rain = 0
KMUS 081240Z 01004KT M01/M01 A3025 RMK A01 T10111012  RH  100%=      5-min Rain = 0
KMUS 081245Z 02004KT M01/M01 A3025 RMK A01 T10111013  RH  100%=      5-min Rain = 0
KMUS 081250Z 03003KT M01/M01 A3025 RMK A01 T10111013  RH  100%=      5-min Rain = 0
KMUS 081255Z 03003KT M01/M01 A3025 RMK A01 T10121013  RH  100%=      5-min Rain = 0
KMUS 081300Z 04003KT M01/M01 A3025 RMK A01 T10121013  RH  100%=      5-min Rain = 0
KMUS 081305Z 05003KT M01/M01 A3026 RMK A01 T10121013  RH  100%=      5-min Rain = 0
KMUS 081310Z 05003KT M01/M01 A3026 RMK A01 T10111013  RH  100%=      5-min Rain = 0
KMUS 081315Z 07002KT M01/M01 A3026 RMK A01 T10121013  RH  100%=      5-min Rain = 0
KMUS 081320Z 08002KT M01/M01 A3026 RMK A01 T10121013  RH  100%=      5-min Rain = 0
KMUS 081325Z 08002KT M01/M01 A3027 RMK A01 T10121013  RH  100%=      5-min Rain = 0
KMUS 081330Z 08003KT M01/M01 A3027 RMK A01 T10121013  RH  100%=      5-min Rain = 0
KMUS 081335Z 09002KT M01/M01 A3027 RMK A01 T10121013  RH  100%=      5-min Rain = 0
KMUS 081340Z 10002KT M01/M01 A3027 RMK A01 T10121014  RH  100%=      5-min Rain = 0
KMUS 081345Z 09002KT M01/M01 A3028 RMK A01 T10121014  RH  100%=      5-min Rain = 0
KMUS 081350Z 09002KT M01/M01 A3028 RMK A01 T10131014  RH  100%=      5-min Rain = 0
KMUS 081355Z 11002KT M01/M01 A3028 RMK A01 T10131014  RH  100%=      5-min Rain = 0
KMUS 081400Z 12002KT M01/M01 A3029 RMK A01 T10131014  RH  100%=      5-min Rain = 0
KMUS 081405Z 12002KT M01/M01 A3029 RMK A01 T10131014  RH  100%=      5-min Rain = 0
KMUS 081410Z 11003KT M01/M01 A3029 RMK A01 T10131014  RH  100%=      5-min Rain = 0
KMUS 081415Z 11003KT M01/M01 A3029 RMK A01 T10131014  RH  100%=      5-min Rain = 0
KMUS 081420Z 11002KT M01/M01 A3029 RMK A01 T10131014  RH  100%=      5-min Rain = 0
KMUS 081425Z 12002KT M01/M01 A3029 RMK A01 T10121014  RH  100%=      5-min Rain = 0
KMUS 081430Z 12001KT M01/M01 A303 RMK A01 T10121013  RH  100%=      5-min Rain = 0
KMUS 081435Z 12001KT M01/M01 A303 RMK A01 T10121013  RH  100%=      5-min Rain = 0
KMUS 081440Z 12001KT M01/M01 A303 RMK A01 T10111012  RH  100%=      5-min Rain = 0
KMUS 081445Z 12002KT M01/M01 A303 RMK A01 T10111012  RH  100%=      5-min Rain = 0
KMUS 081450Z 12002KT M01/M01 A303 RMK A01 T10101011  RH  100%=      5-min Rain = 0
KMUS 081455Z 12002KT M01/M01 A303 RMK A01 T10091011  RH  100%=      5-min Rain = 0
KMUS 081500Z 12002KT M01/M01 A303 RMK A01 T10091011  RH  100%=      5-min Rain = 0
KMUS 081505Z 11002KT M01/M01 A303 RMK A01 T10081010  RH  100%=      5-min Rain = 0
KMUS 081510Z 11002KT M01/M01 A303 RMK A01 T10081009  RH  100%=      5-min Rain = 0
KMUS 081515Z 10002KT M01/M01 A3031 RMK A01 T10081009  RH  100%=      5-min Rain = 0
KMUS 081520Z 08000KT M01/M01 A3031 RMK A01 T10071009  RH  100%=      5-min Rain = 0
KMUS 081525Z 08000KT M01/M01 A3031 RMK A01 T10061008  RH  100%=      5-min Rain = 0
KMUS 081530Z 06001KT M01/M01 A3031 RMK A01 T10051007  RH  100%=      5-min Rain = 0
KMUS 081535Z 04001KT M01/M01 A3031 RMK A01 T10051007  RH  099%=      5-min Rain = 0
KMUS 081540Z 04001KT M01/M01 A3031 RMK A01 T10051007  RH  099%=      5-min Rain = 0
KMUS 081545Z 01001KT M00/M00 A3031 RMK A01 T10021004  RH  100%=      5-min Rain = 0
KMUS 081550Z 02001KT 00/00 A3031 RMK A01 T00-000-2  RH  100%=      5-min Rain = 0
KMUS 081555Z 03002KT M00/M00 A3031 RMK A01 T10011003  RH  099%=      5-min Rain = 0
KMUS 081600Z 02002KT 00/00 A3031 RMK A01 T000000-2  RH  099%=      5-min Rain = 0
KMUS 081605Z 01003KT 00/00 A3032 RMK A01 T000200-0  RH  099%=      5-min Rain = 0
KMUS 081610Z 03003KT 00/00 A3032 RMK A01 T000300-0  RH  099%=      5-min Rain = 0
KMUS 081615Z 03003KT 00/M00 A3032 RMK A01 T00011002  RH  099%=      5-min Rain = 0
KMUS 081620Z 04005KT 00/M00 A3032 RMK A01 T00011002  RH  099%=      5-min Rain = 0
KMUS 081625Z 05004KT M00/M00 A3032 RMK A01 T10011004  RH  099%=      5-min Rain = 0
KMUS 081630Z 06004KT M00/M01 A3032 RMK A01 T10021006  RH  099%=      5-min Rain = 0
KMUS 081635Z 05003KT M00/M01 A3032 RMK A01 T10021006  RH  098%=      5-min Rain = 0
KMUS 081640Z 05003KT M00/M01 A3032 RMK A01 T10021006  RH  098%=      5-min Rain = 0
KMUS 081645Z 05003KT 00/00 A3032 RMK A01 T00-000-4  RH  098%=      5-min Rain = 0
KMUS 081650Z 04004KT 00/00 A3032 RMK A01 T000000-4  RH  098%=      5-min Rain = 0
KMUS 081655Z 04005KT 00/M00 A3032 RMK A01 T00011003  RH  098%=      5-min Rain = 0.01
KMUS 081700Z 04004KT 00/M00 A3032 RMK A01 T00021003  RH  098%=      5-min Rain = 0
KMUS 081705Z 05003KT 00/M00 A3032 RMK A01 T00011004  RH  097%=      5-min Rain = 0.01
KMUS 081710Z 02004KT 00/M00 A3032 RMK A01 T00021003  RH  097%=      5-min Rain = 0.01
KMUS 081715Z 03004KT 00/M00 A3032 RMK A01 T00041002  RH  097%=      5-min Rain = 0.01
KMUS 081720Z 01003KT 00/M00 A3032 RMK A01 T00041001  RH  097%=      5-min Rain = 0.01
KMUS 081725Z 02004KT 01/00 A3031 RMK A01 T00060001  RH  097%=      5-min Rain = 0.01
KMUS 081730Z 01003KT 01/00 A3031 RMK A01 T00070002  RH  097%=      5-min Rain = 0.02
KMUS 081735Z 04003KT 01/00 A3031 RMK A01 T000600-0  RH  097%=      5-min Rain = 0.01
KMUS 081740Z 02004KT 01/00 A3031 RMK A01 T00060001  RH  097%=      5-min Rain = 0.01
KMUS 081745Z 04004KT 01/00 A3031 RMK A01 T00070001  RH  097%=      5-min Rain = 0.02
KMUS 081750Z 04004KT 01/M00 A303 RMK A01 T00061002  RH  096%=      5-min Rain = 0.01
KMUS 081755Z 03004KT 01/00 A303 RMK A01 T00080001  RH  096%=      5-min Rain = 0.03
KMUS 081800Z 02003KT 01/00 A303 RMK A01 T00100003  RH  096%=      5-min Rain = 0.01
KMUS 081805Z 02004KT 01/01 A303 RMK A01 T00140005  RH  095%=      5-min Rain = 0.02
KMUS 081810Z 01003KT 02/01 A3029 RMK A01 T00150005  RH  094%=      5-min Rain = 0.02
KMUS 081815Z 01003KT 02/01 A303 RMK A01 T00170005  RH  093%=      5-min Rain = 0.01
KMUS 081820Z 03004KT 02/M00 A3029 RMK A01 T00151001  RH  090%=      5-min Rain = 0.02
KMUS 081825Z 05004KT 01/M01 A3029 RMK A01 T00121006  RH  089%=      5-min Rain = 0.01
KMUS 081830Z 04002KT 01/M01 A3029 RMK A01 T00111008  RH  088%=      5-min Rain = 0
KMUS 081835Z 03003KT 01/M01 A3028 RMK A01 T00141006  RH  088%=      5-min Rain = 0
KMUS 081840Z 02003KT 02/M00 A3028 RMK A01 T00171004  RH  087%=      5-min Rain = 0
KMUS 081845Z 02003KT 02/M01 A3028 RMK A01 T00171008  RH  085%=      5-min Rain = 0
KMUS 081850Z 01002KT 02/M01 A3028 RMK A01 T00191006  RH  085%=      5-min Rain = 0
KMUS 081855Z 35002KT 02/M01 A3028 RMK A01 T00191008  RH  083%=      5-min Rain = 0
KMUS 081900Z 05002KT 02/M01 A3027 RMK A01 T00211009  RH  082%=      5-min Rain = 0
KMUS 081905Z 05002KT 02/M01 A3027 RMK A01 T00191012  RH  081%=      5-min Rain = 0
KMUS 081910Z 03002KT 02/M01 A3027 RMK A01 T00201009  RH  082%=      5-min Rain = 0
KMUS 081915Z 34002KT 02/M01 A3027 RMK A01 T00211009  RH  081%=      5-min Rain = 0
KMUS 081920Z 34002KT 02/M01 A3027 RMK A01 T00211009  RH  081%=      5-min Rain = 0
KMUS 081925Z 31002KT 02/M01 A3027 RMK A01 T00231007  RH  082%=      5-min Rain = 0
KMUS 081930Z 32004KT 02/M01 A3027 RMK A01 T00221008  RH  082%=      5-min Rain = 0
KMUS 081935Z 31005KT 02/M01 A3026 RMK A01 T00231008  RH  081%=      5-min Rain = 0
KMUS 081940Z 32003KT 03/M01 A3026 RMK A01 T00251008  RH  080%=      5-min Rain = 0
KMUS 081945Z 34004KT 03/M00 A3026 RMK A01 T00311003  RH  079%=      5-min Rain = 0
KMUS 081950Z 30004KT 03/M01 A3025 RMK A01 T00321008  RH  076%=      5-min Rain = 0
KMUS 081955Z 35003KT 03/M01 A3025 RMK A01 T00301008  RH  077%=      5-min Rain = 0
KMUS 082000Z 04003KT 03/M01 A3024 RMK A01 T00321007  RH  076%=      5-min Rain = 0
KMUS 082005Z 01004KT 03/M01 A3024 RMK A01 T00321007  RH  076%=      5-min Rain = 0
KMUS 082010Z 36004KT 03/M01 A3024 RMK A01 T00291010  RH  076%=      5-min Rain = 0
KMUS 082015Z 32004KT 03/M01 A3024 RMK A01 T00281010  RH  077%=      5-min Rain = 0
KMUS 082020Z 31003KT 03/M01 A3024 RMK A01 T00281012  RH  076%=      5-min Rain = 0
KMUS 082025Z 29003KT 03/M01 A3023 RMK A01 T00281012  RH  076%=      5-min Rain = 0
KMUS 082030Z 30003KT 03/M01 A3023 RMK A01 T00281012  RH  076%=      5-min Rain = 0
KMUS 082035Z 30005KT 03/M01 A3023 RMK A01 T00291009  RH  077%=      5-min Rain = 0
KMUS 082040Z 31005KT 03/M01 A3023 RMK A01 T00291008  RH  077%=      5-min Rain = 0
KMUS 082045Z 32005KT 03/M01 A3023 RMK A01 T00301005  RH  078%=      5-min Rain = 0
KMUS 082050Z 32006KT 03/M01 A3023 RMK A01 T00311007  RH  077%=      5-min Rain = 0
KMUS 082055Z 33003KT 03/M01 A3023 RMK A01 T00301009  RH  076%=      5-min Rain = 0
KMUS 082100Z 30003KT 03/M01 A3023 RMK A01 T00311007  RH  077%=      5-min Rain = 0
KMUS 082105Z 30004KT 03/M01 A3023 RMK A01 T00321008  RH  076%=      5-min Rain = 0
KMUS 082110Z 29003KT 03/M01 A3023 RMK A01 T00331008  RH  075%=      5-min Rain = 0
KMUS 082115Z 28004KT 03/M01 A3023 RMK A01 T00331009  RH  075%=      5-min Rain = 0
KMUS 082120Z 30004KT 03/M01 A3023 RMK A01 T00341008  RH  075%=      5-min Rain = 0
KMUS 082125Z 31003KT 03/M01 A3022 RMK A01 T00341008  RH  074%=      5-min Rain = 0
KMUS 082130Z 28003KT 04/M01 A3022 RMK A01 T00351009  RH  074%=      5-min Rain = 0
KMUS 082135Z 27004KT 03/M01 A3022 RMK A01 T00341008  RH  074%=      5-min Rain = 0
KMUS 082140Z 27001KT 04/M01 A3022 RMK A01 T00351008  RH  074%=      5-min Rain = 0
KMUS 082145Z 28001KT 04/M01 A3022 RMK A01 T00401006  RH  072%=      5-min Rain = 0
KMUS 082150Z 29002KT 04/M01 A3022 RMK A01 T00391010  RH  071%=      5-min Rain = 0
KMUS 082155Z 24001KT 04/M01 A3022 RMK A01 T00401007  RH  072%=      5-min Rain = 0
KMUS 082200Z 21001KT 04/M01 A3022 RMK A01 T00431007  RH  070%=      5-min Rain = 0
KMUS 082205Z 20002KT 05/M01 A3022 RMK A01 T00451007  RH  069%=      5-min Rain = 0
KMUS 082210Z 15001KT 05/M01 A3021 RMK A01 T00451009  RH  069%=      5-min Rain = 0
KMUS 082215Z 17000KT 05/M01 A3021 RMK A01 T00451007  RH  070%=      5-min Rain = 0
KMUS 082220Z 18002KT 05/M01 A3021 RMK A01 T00481006  RH  069%=      5-min Rain = 0
KMUS 082225Z 21001KT 05/M01 A3022 RMK A01 T00481008  RH  068%=      5-min Rain = 0
KMUS 082230Z 22001KT 05/M01 A3022 RMK A01 T00491007  RH  068%=      5-min Rain = 0
KMUS 082235Z 11001KT 05/M01 A3021 RMK A01 T00501007  RH  067%=      5-min Rain = 0
KMUS 082240Z 12000KT 05/M01 A3021 RMK A01 T00481008  RH  068%=      5-min Rain = 0
KMUS 082245Z 16000KT 05/M00 A3021 RMK A01 T00511004  RH  068%=      5-min Rain = 0
KMUS 082250Z 36000KT 05/M01 A3021 RMK A01 T00521006  RH  067%=      5-min Rain = 0
KMUS 082255Z 33000KT 05/M01 A3022 RMK A01 T00511006  RH  068%=      5-min Rain = 0
KMUS 082300Z 23001KT 05/M01 A3022 RMK A01 T00501007  RH  068%=      5-min Rain = 0
KMUS 082305Z 17003KT 05/M01 A3022 RMK A01 T00471007  RH  069%=      5-min Rain = 0
KMUS 082310Z 18003KT 04/M01 A3022 RMK A01 T00431008  RH  070%=      5-min Rain = 0
KMUS 082315Z 19005KT 04/M01 A3022 RMK A01 T00371008  RH  073%=      5-min Rain = 0
KMUS 082320Z 18004KT 03/M01 A3022 RMK A01 T00321007  RH  076%=      5-min Rain = 0
KMUS 082325Z 19005KT 03/M01 A3021 RMK A01 T00291007  RH  078%=      5-min Rain = 0
KMUS 082330Z 18005KT 03/M01 A3022 RMK A01 T00261007  RH  079%=      5-min Rain = 0
KMUS 082335Z 18005KT 02/M01 A3022 RMK A01 T00221008  RH  081%=      5-min Rain = 0
KMUS 082340Z 19005KT 02/M01 A3022 RMK A01 T00181010  RH  083%=      5-min Rain = 0
KMUS 082345Z 19005KT 01/M01 A3022 RMK A01 T00141011  RH  084%=      5-min Rain = 0
KMUS 082350Z 18005KT 01/M01 A3022 RMK A01 T00101013  RH  085%=      5-min Rain = 0
KMUS 082355Z 18005KT 01/M01 A3022 RMK A01 T00081013  RH  087%=      5-min Rain = 0
KMUS 090000Z 17004KT 01/M01 A3023 RMK A01 T00061014  RH  087%=      5-min Rain = 0
KMUS 090005Z 14006KT 00/M02 A3023 RMK A01 T00011018  RH  088%=      5-min Rain = 0
KMUS 090010Z 16006KT 00/02 A3023 RMK A01 T00000-16  RH  089%=      5-min Rain = 0
KMUS 090015Z 17006KT M00/M02 A3023 RMK A01 T10021018  RH  090%=      5-min Rain = 0
KMUS 090020Z 16006KT M00/M02 A3023 RMK A01 T10031018  RH  090%=      5-min Rain = 0
KMUS 090025Z 15004KT M01/M02 A3023 RMK A01 T10051020  RH  090%=      5-min Rain = 0
KMUS 090030Z 16004KT M01/M02 A3023 RMK A01 T10081023  RH  091%=      5-min Rain = 0
KMUS 090035Z 17005KT M01/M02 A3024 RMK A01 T10101024  RH  091%=      5-min Rain = 0
KMUS 090040Z 17005KT M01/M02 A3024 RMK A01 T10121024  RH  092%=      5-min Rain = 0
KMUS 090045Z 17005KT M01/M02 A3024 RMK A01 T10121024  RH  092%=      5-min Rain = 0
KMUS 090050Z 17004KT M01/M03 A3024 RMK A01 T10141025  RH  093%=      5-min Rain = 0
KMUS 090055Z 17004KT M02/M03 A3024 RMK A01 T10151026  RH  093%=      5-min Rain = 0
KMUS 090100Z 16003KT M02/M03 A3024 RMK A01 T10161027  RH  093%=      5-min Rain = 0
KMUS 090105Z 16004KT M02/M03 A3024 RMK A01 T10171027  RH  093%=      5-min Rain = 0
KMUS 090110Z 17004KT M02/M03 A3024 RMK A01 T10181028  RH  093%=      5-min Rain = 0
KMUS 090115Z 17003KT M02/M03 A3024 RMK A01 T10191029  RH  094%=      5-min Rain = 0
KMUS 090120Z 15002KT M02/M03 A3024 RMK A01 T10201030  RH  094%=      5-min Rain = 0
KMUS 090125Z 09002KT M02/M03 A3024 RMK A01 T10211030  RH  094%=      5-min Rain = 0
KMUS 090130Z 11002KT M02/M03 A3024 RMK A01 T10241034  RH  094%=      5-min Rain = 0
KMUS 090135Z 09002KT M03/M03 A3025 RMK A01 T10251034  RH  095%=      5-min Rain = 0
KMUS 090140Z 14002KT M03/M03 A3025 RMK A01 T10261034  RH  095%=      5-min Rain = 0
KMUS 090145Z 12002KT M03/M04 A3025 RMK A01 T10271035  RH  095%=      5-min Rain = 0
KMUS 090150Z 12003KT M03/M04 A3025 RMK A01 T10281035  RH  095%=      5-min Rain = 0
KMUS 090155Z 12002KT M03/M04 A3025 RMK A01 T10291037  RH  095%=      5-min Rain = 0
KMUS 090200Z 11002KT M03/M04 A3025 RMK A01 T10311038  RH  095%=      5-min Rain = 0
KMUS 090205Z 12002KT M03/M04 A3025 RMK A01 T10311037  RH  096%=      5-min Rain = 0
KMUS 090210Z 13001KT M03/M04 A3025 RMK A01 T10321039  RH  096%=      5-min Rain = 0
KMUS 090215Z 17002KT M03/M04 A3026 RMK A01 T10331040  RH  096%=      5-min Rain = 0
KMUS 090220Z 18002KT M03/M04 A3026 RMK A01 T10341041  RH  096%=      5-min Rain = 0
KMUS 090225Z 17003KT M04/M04 A3026 RMK A01 T10371043  RH  096%=      5-min Rain = 0
KMUS 090230Z 19003KT M04/M04 A3026 RMK A01 T10381044  RH  096%=      5-min Rain = 0
KMUS 090235Z 21003KT M04/M04 A3027 RMK A01 T10381043  RH  096%=      5-min Rain = 0
KMUS 090240Z 21002KT M04/M04 A3027 RMK A01 T10371043  RH  097%=      5-min Rain = 0
KMUS 090245Z 22002KT M04/M04 A3027 RMK A01 T10361041  RH  097%=      5-min Rain = 0
KMUS 090250Z 21004KT M04/M04 A3027 RMK A01 T10361041  RH  097%=      5-min Rain = 0
KMUS 090255Z 20005KT M04/M04 A3027 RMK A01 T10381044  RH  096%=      5-min Rain = 0
KMUS 090300Z 21005KT M04/M04 A3027 RMK A01 T10381043  RH  097%=      5-min Rain = 0
KMUS 090305Z 22005KT M04/M04 A3027 RMK A01 T10381043  RH  097%=      5-min Rain = 0
KMUS 090310Z 22005KT M04/M04 A3028 RMK A01 T10381043  RH  097%=      5-min Rain = 0
KMUS 090315Z 22005KT M04/M04 A3028 RMK A01 T10381043  RH  097%=      5-min Rain = 0
KMUS 090320Z 21005KT M04/M04 A3028 RMK A01 T10391044  RH  097%=      5-min Rain = 0
KMUS 090325Z 21005KT M04/M04 A3028 RMK A01 T10371042  RH  097%=      5-min Rain = 0
KMUS 090330Z 22005KT M04/M04 A3028 RMK A01 T10371041  RH  097%=      5-min Rain = 0
KMUS 090335Z 21005KT M04/M04 A3028 RMK A01 T10361041  RH  097%=      5-min Rain = 0
KMUS 090340Z 20003KT M04/M04 A3027 RMK A01 T10371042  RH  097%=      5-min Rain = 0
KMUS 090345Z 20003KT M04/M04 A3027 RMK A01 T10371042  RH  097%=      5-min Rain = 0
KMUS 090350Z 25002KT M04/M04 A3028 RMK A01 T10371042  RH  097%=      5-min Rain = 0
KMUS 090355Z 28003KT M04/M04 A3028 RMK A01 T10381043  RH  097%=      5-min Rain = 0
KMUS 090400Z 28003KT M04/M04 A3028 RMK A01 T10381043  RH  097%=      5-min Rain = 0
KMUS 090405Z 28003KT M04/M04 A3028 RMK A01 T10391044  RH  097%=      5-min Rain = 0
KMUS 090410Z 27004KT M04/M05 A3028 RMK A01 T10411046  RH  097%=      5-min Rain = 0
KMUS 090415Z 28004KT M04/M05 A3029 RMK A01 T10431049  RH  096%=      5-min Rain = 0
KMUS 090420Z 28003KT M05/M05 A3029 RMK A01 T10451050  RH  097%=      5-min Rain = 0
KMUS 090425Z 27002KT M05/M05 A3029 RMK A01 T10461050  RH  097%=      5-min Rain = 0
KMUS 090430Z 28002KT M05/M05 A3029 RMK A01 T10461050  RH  097%=      5-min Rain = 0
KMUS 090435Z 27001KT M05/M05 A3029 RMK A01 T10451050  RH  097%=      5-min Rain = 0
KMUS 090440Z 29001KT M05/M05 A3029 RMK A01 T10461051  RH  097%=      5-min Rain = 0
KMUS 090445Z 29001KT M05/M05 A3029 RMK A01 T10471051  RH  097%=      5-min Rain = 0
KMUS 090450Z 30001KT M05/M05 A3029 RMK A01 T10481053  RH  097%=      5-min Rain = 0
KMUS 090455Z 32001KT M05/M05 A3029 RMK A01 T10481052  RH  098%=      5-min Rain = 0
KMUS 090500Z 30002KT M05/M05 A3029 RMK A01 T10481052  RH  097%=      5-min Rain = 0
KMUS 090505Z 28002KT M05/M05 A3029 RMK A01 T10501054  RH  097%=      5-min Rain = 0
KMUS 090510Z 27002KT M05/M06 A3029 RMK A01 T10531057  RH  097%=      5-min Rain = 0
KMUS 090515Z 27002KT M06/M06 A3029 RMK A01 T10561060  RH  097%=      5-min Rain = 0
KMUS 090520Z 28002KT M06/M06 A3029 RMK A01 T10571061  RH  097%=      5-min Rain = 0
KMUS 090525Z 28002KT M06/M06 A3029 RMK A01 T10561059  RH  098%=      5-min Rain = 0
KMUS 090530Z 28000KT M06/M06 A3029 RMK A01 T10551059  RH  098%=      5-min Rain = 0
KMUS 090535Z 00000KT M06/M06 A3029 RMK A01 T10551058  RH  098%=      5-min Rain = 0
KMUS 090540Z 00000KT M06/M06 A3029 RMK A01 T10551058  RH  098%=      5-min Rain = 0
KMUS 090545Z 00000KT M06/M06 A3029 RMK A01 T10551058  RH  098%=      5-min Rain = 0
KMUS 090550Z 28001KT M06/M06 A3029 RMK A01 T10551058  RH  098%=      5-min Rain = 0
KMUS 090555Z 23002KT M06/M06 A3029 RMK A01 T10571061  RH  097%=      5-min Rain = 0

Page generated in 0.0087 seconds.